createdAt,value
2023-04-13T00:03:20.585Z,94627.16
2023-04-13T00:08:23.949Z,94626.66
2023-04-13T00:13:26.641Z,94645.44
2023-04-13T00:18:29.252Z,94652.69
2023-04-13T00:23:31.928Z,94658.06
2023-04-13T00:28:34.582Z,94658.94
2023-04-13T00:33:37.267Z,94669.66
2023-04-13T00:38:40.586Z,94675.25
2023-04-13T00:43:44.896Z,94688.09
2023-04-13T00:48:48.267Z,94678.50
2023-04-13T00:53:51.650Z,94688.88
2023-04-13T00:58:54.032Z,94689.94
2023-04-13T01:03:57.249Z,94685.13
2023-04-13T01:08:59.790Z,94693.94
2023-04-13T01:14:02.307Z,94679.28
2023-04-13T01:19:06.020Z,94685.13
2023-04-13T01:24:08.301Z,94677.94
2023-04-13T01:29:11.211Z,94671.03
2023-04-13T01:34:14.411Z,94670.78
2023-04-13T01:39:17.372Z,94674.50
2023-04-13T01:44:19.758Z,94676.66
2023-04-13T01:49:22.730Z,94680.13
2023-04-13T01:54:25.576Z,94676.91
2023-04-13T01:59:28.647Z,94683.31
2023-04-13T02:04:31.877Z,94687.84
2023-04-13T02:09:35.218Z,94702.50
2023-04-13T02:14:37.512Z,94697.97
2023-04-13T02:19:39.996Z,94695.31
2023-04-13T02:24:42.416Z,94695.31
2023-04-13T02:29:45.724Z,94716.63
2023-04-13T02:34:49.487Z,94723.56
2023-04-13T02:39:52.741Z,94722.50
2023-04-13T02:44:55.478Z,94728.63
2023-04-13T02:49:58.080Z,94730.22
2023-04-13T02:55:01.140Z,94735.81
2023-04-13T03:00:10.081Z,94736.63
2023-04-13T03:05:12.831Z,94727.53
2023-04-13T03:10:16.089Z,94729.16
2023-04-13T03:15:18.927Z,94715.84
2023-04-13T03:20:23.782Z,94716.34
2023-04-13T03:25:26.515Z,94698.25
2023-04-13T03:30:38.871Z,94689.44
2023-04-13T03:35:41.182Z,94688.91
2023-04-13T03:40:44.238Z,94691.59
2023-04-13T03:45:46.596Z,94703.28
2023-04-13T03:50:49.056Z,94718.72
2023-04-13T03:55:51.865Z,94715.03
2023-04-13T04:00:55.054Z,94719.78
2023-04-13T04:05:57.742Z,94703.00
2023-04-13T04:11:00.877Z,94700.34
2023-04-13T04:16:07.003Z,94696.06
2023-04-13T04:21:11.197Z,94698.47
2023-04-13T04:26:14.936Z,94704.31
2023-04-13T04:31:18.182Z,94714.69
2023-04-13T04:36:21.477Z,94713.34
2023-04-13T04:41:37.973Z,94714.94
2023-04-13T04:46:41.826Z,94715.19
2023-04-13T04:51:44.483Z,94716.78
2023-04-13T04:56:58.018Z,94715.72
2023-04-13T05:02:01.237Z,94715.75
2023-04-13T05:07:04.391Z,94719.22
2023-04-13T05:12:07.477Z,94725.59
2023-04-13T05:17:10.813Z,94710.19
2023-04-13T05:22:14.597Z,94712.31
2023-04-13T05:27:17.423Z,94719.78
2023-04-13T05:32:20.966Z,94722.19
2023-04-13T05:37:24.243Z,94735.25
2023-04-13T05:42:26.970Z,94736.06
2023-04-13T05:47:29.850Z,94750.75
2023-04-13T05:52:32.701Z,94748.34
2023-04-13T05:57:34.987Z,94755.00
2023-04-13T06:02:40.264Z,94765.94
2023-04-13T06:07:44.851Z,94776.84
2023-04-13T06:12:48.872Z,94766.72
2023-04-13T06:17:52.082Z,94782.72
2023-04-13T06:22:54.829Z,94800.59
2023-04-13T06:27:57.316Z,94788.63
2023-04-13T06:32:59.804Z,94793.69
2023-04-13T06:38:02.628Z,94787.00
2023-04-13T06:43:08.975Z,94784.78
2023-04-13T06:48:17.188Z,94777.25
2023-04-13T06:53:19.591Z,94781.91
2023-04-13T06:58:23.176Z,94776.16
2023-04-13T07:03:26.341Z,94773.19
2023-04-13T07:08:33.416Z,94777.59
2023-04-13T07:13:35.972Z,94766.06
2023-04-13T07:18:38.465Z,94762.44
2023-04-13T07:23:42.479Z,94767.41
2023-04-13T07:28:45.275Z,94766.47
2023-04-13T07:33:47.731Z,94764.22
2023-04-13T07:38:50.322Z,94766.88
2023-04-13T07:43:52.826Z,94756.50
2023-04-13T07:48:55.473Z,94756.56
2023-04-13T07:53:58.161Z,94750.84
2023-04-13T07:59:01.173Z,94759.69
2023-04-13T08:04:04.194Z,94756.38
2023-04-13T08:09:08.040Z,94753.31
2023-04-13T08:14:11.850Z,94742.56
2023-04-13T08:19:14.424Z,94741.19
2023-04-13T08:24:16.955Z,94756.56
2023-04-13T08:29:24.312Z,94745.56
2023-04-13T08:34:27.452Z,94757.13
2023-04-13T08:39:30.059Z,94746.22
2023-04-13T08:44:32.532Z,94739.03
2023-04-13T08:49:35.858Z,94730.81
2023-04-13T08:54:38.228Z,94729.63
2023-04-13T08:59:42.246Z,94732.00
2023-04-13T09:04:46.145Z,94736.75
2023-04-13T09:09:48.990Z,94729.25
2023-04-13T09:14:51.477Z,94728.78
2023-04-13T09:19:54.387Z,94729.91
2023-04-13T09:24:57.075Z,94730.22
2023-04-13T09:30:01.491Z,94729.94
2023-04-13T09:35:05.590Z,94718.44
2023-04-13T09:40:09.874Z,94711.59
2023-04-13T09:45:12.294Z,94708.44
2023-04-13T09:50:15.527Z,94696.06
2023-04-13T09:55:18.802Z,94699.16
2023-04-13T10:00:22.003Z,94700.19
2023-04-13T10:05:28.928Z,94685.44
2023-04-13T10:10:31.579Z,94676.00
2023-04-13T10:15:33.907Z,94685.75
2023-04-13T10:20:37.145Z,94681.44
2023-04-13T10:25:41.435Z,94669.75
2023-04-13T10:30:43.759Z,94668.47
2023-04-13T10:35:46.939Z,94671.03
2023-04-13T10:40:50.352Z,94672.88
2023-04-13T10:45:54.430Z,94664.75
2023-04-13T10:50:57.133Z,94644.91
2023-04-13T10:55:59.587Z,94646.59
2023-04-13T11:01:03.252Z,94665.59
2023-04-13T11:06:05.614Z,94661.25
2023-04-13T11:16:17.597Z,94666.38
2023-04-13T11:21:19.950Z,94679.97
2023-04-13T11:26:24.833Z,94677.47
2023-04-13T11:31:27.638Z,94671.44
2023-04-13T11:36:32.256Z,94669.31
2023-04-13T11:41:35.055Z,94670.72
2023-04-13T11:46:37.909Z,94662.06
2023-04-13T11:51:40.424Z,94659.41
2023-04-13T11:56:42.875Z,94666.94
2023-04-13T12:01:50.387Z,94671.13
2023-04-13T12:06:56.192Z,94661.56
2023-04-13T12:12:20.480Z,94665.66
2023-04-13T12:22:27.332Z,94666.91
2023-04-13T12:27:30.184Z,94670.00
2023-04-13T12:32:32.538Z,94669.88
2023-04-13T12:37:35.068Z,94672.97
2023-04-13T12:42:37.728Z,94671.16
2023-04-13T12:47:40.455Z,94689.66
2023-04-13T12:52:42.825Z,94698.59
2023-04-13T12:57:45.714Z,94698.38
2023-04-13T13:02:52.159Z,94694.00
2023-04-13T13:07:58.780Z,94697.03
2023-04-13T13:13:03.805Z,94685.28
2023-04-13T13:18:08.049Z,94694.94
2023-04-13T13:23:10.433Z,94702.94
2023-04-13T13:28:15.223Z,94694.19
2023-04-13T13:33:18.075Z,94698.28
2023-04-13T13:38:21.001Z,94686.97
2023-04-13T13:43:23.755Z,94696.44
2023-04-13T13:48:27.521Z,94694.47
2023-04-13T13:53:31.713Z,94705.16
2023-04-13T13:58:34.380Z,94692.44
2023-04-13T14:03:37.451Z,94688.16
2023-04-13T14:08:39.945Z,94680.44
2023-04-13T14:13:42.711Z,94676.03
2023-04-13T14:18:47.911Z,94663.97
2023-04-13T14:23:51.905Z,94666.81
2023-04-13T14:28:54.647Z,94683.94
2023-04-13T14:33:57.299Z,94683.72
2023-04-13T14:39:10.190Z,94692.88
2023-04-13T14:44:14.014Z,94700.53
2023-04-13T14:49:17.784Z,94679.84
2023-04-13T14:54:29.625Z,94664.34
2023-04-13T14:59:32.812Z,94653.88
2023-04-13T15:04:37.376Z,94642.53
2023-04-13T15:09:40.968Z,94647.63
2023-04-13T15:14:46.795Z,94673.47
2023-04-13T15:19:50.091Z,94701.16
2023-04-13T15:24:53.064Z,94695.22
2023-04-13T15:29:55.482Z,94696.25
2023-04-13T15:34:58.271Z,94701.13
2023-04-13T15:40:01.409Z,94700.97
2023-04-13T15:45:10.398Z,94701.88
2023-04-13T15:50:14.025Z,94698.28
2023-04-13T15:55:17.187Z,94687.47
2023-04-13T16:00:19.629Z,94683.22
2023-04-13T16:05:22.821Z,94679.63
2023-04-13T16:10:26.142Z,94696.97
2023-04-13T16:15:28.953Z,94702.16
2023-04-13T16:20:32.400Z,94707.78
2023-04-13T16:25:35.291Z,94709.28
2023-04-13T16:30:39.522Z,94700.19
2023-04-13T16:35:46.050Z,94711.75
2023-04-13T16:40:48.697Z,94718.63
2023-04-13T16:45:51.517Z,94726.47
2023-04-13T16:50:55.039Z,94739.63
2023-04-13T16:55:58.384Z,94749.56
2023-04-13T17:01:01.289Z,94743.50
2023-04-13T17:06:03.820Z,94746.34
2023-04-13T17:11:07.984Z,94750.19
2023-04-13T17:16:10.883Z,94752.19
2023-04-13T17:21:13.672Z,94754.34
2023-04-13T17:26:16.829Z,94738.59
2023-04-13T17:31:19.551Z,94731.09
2023-04-13T17:36:22.916Z,94733.00
2023-04-13T17:41:35.424Z,94732.03
2023-04-13T17:46:38.084Z,94736.44
2023-04-13T17:51:40.554Z,94742.91
2023-04-13T17:56:47.923Z,94756.38
2023-04-13T18:01:50.902Z,94768.69
2023-04-13T18:06:56.488Z,94768.47
2023-04-13T18:11:59.541Z,94773.28
2023-04-13T18:17:02.188Z,94781.59
2023-04-13T18:22:04.634Z,94781.66
2023-04-13T18:27:07.985Z,94788.59
2023-04-13T18:32:10.454Z,94790.50
2023-04-13T18:37:12.895Z,94801.97
2023-04-13T18:42:15.519Z,94804.06
2023-04-13T18:47:19.397Z,94808.34
2023-04-13T18:52:26.117Z,94803.03
2023-04-13T18:57:30.460Z,94808.88
2023-04-13T19:02:33.213Z,94801.41
2023-04-13T19:07:36.821Z,94797.66
2023-04-13T19:12:40.018Z,94801.94
2023-04-13T19:17:43.920Z,94801.41
2023-04-13T19:22:46.326Z,94820.06
2023-04-13T19:27:50.085Z,94824.84
2023-04-13T19:32:54.913Z,94836.84
2023-04-13T19:37:57.309Z,94831.50
2023-04-13T19:43:00.338Z,94834.72
2023-04-13T19:48:03.037Z,94828.63
2023-04-13T19:53:06.133Z,94832.34
2023-04-13T19:58:09.878Z,94829.91
2023-04-13T20:03:12.982Z,94825.91
2023-04-13T20:08:16.534Z,94841.38
2023-04-13T20:13:19.682Z,94837.06
2023-04-13T20:18:24.032Z,94825.59
2023-04-13T20:23:26.409Z,94829.53
2023-04-13T20:28:33.220Z,94824.72
2023-04-13T20:33:36.494Z,94833.25
2023-04-13T20:38:42.689Z,94836.38
2023-04-13T20:43:45.054Z,94844.06
2023-04-13T20:48:51.218Z,94858.97
2023-04-13T20:53:53.711Z,94864.06
2023-04-13T20:58:57.856Z,94857.94
2023-04-13T21:04:01.213Z,94866.97
2023-04-13T21:09:05.479Z,94855.75
2023-04-13T21:14:08.311Z,94850.41
2023-04-13T21:19:10.651Z,94840.53
2023-04-13T21:24:13.299Z,94837.31
2023-04-13T21:29:19.996Z,94827.25
2023-04-13T21:34:27.087Z,94824.50
2023-04-13T21:39:29.656Z,94813.03
2023-04-13T21:44:32.090Z,94818.09
2023-04-13T21:49:34.414Z,94809.03
2023-04-13T21:54:47.210Z,94807.06
2023-04-13T21:59:50.485Z,94809.81
2023-04-13T22:04:52.800Z,94801.00
2023-04-13T22:09:55.648Z,94788.78
2023-04-13T22:14:58.400Z,94803.66
2023-04-13T22:20:01.671Z,94806.56
2023-04-13T22:25:13.986Z,94801.53
2023-04-13T22:30:16.661Z,94808.97
2023-04-13T22:35:20.009Z,94801.81
2023-04-13T22:40:32.332Z,94809.50
2023-04-13T22:45:35.021Z,94806.84
2023-04-13T22:50:38.716Z,94814.81
2023-04-13T22:55:41.963Z,94813.75
2023-04-13T23:00:44.594Z,94815.84
2023-04-13T23:05:55.987Z,94819.31
2023-04-13T23:10:58.521Z,94815.56
2023-04-13T23:16:01.417Z,94816.00
2023-04-13T23:21:13.522Z,94819.91
2023-04-13T23:26:15.827Z,94815.06
2023-04-13T23:31:18.189Z,94815.31
2023-04-13T23:36:20.972Z,94812.88
2023-04-13T23:41:23.653Z,94811.84
2023-04-13T23:46:26.025Z,94816.06
2023-04-13T23:51:29.345Z,94809.44
2023-04-13T23:56:33.698Z,94811.03
